Time;durP1;ratioP1;P1;durP2;ratioP2;P2;SDS_P1;SDS_P2;PMS_P1;PMS_P2;Temp;Humidity;BMP_temperature;BMP_pressure;BME280_temperature;BME280_humidity;BME280_pressure;Samples;Min_cycle;Max_cycle;Signal;HPM_P1;HPM_P2
2021/04/01 00:01:10;;;;;;;19.00;9.30;;;;;;;17.09;33.72;96947.47;5031169;28;20462;-69
2021/04/01 00:03:39;;;;;;;19.43;9.10;;;;;;;17.31;33.58;96948.13;5030369;28;20207;-71
2021/04/01 00:06:05;;;;;;;14.10;8.00;;;;;;;17.31;33.40;96946.28;5030446;28;20857;-69
2021/04/01 00:08:31;;;;;;;16.93;8.80;;;;;;;16.99;33.96;96938.09;5030194;28;20517;-68
2021/04/01 00:11:00;;;;;;;15.13;8.63;;;;;;;17.13;33.68;96946.06;5030745;28;20647;-68
2021/04/01 00:13:25;;;;;;;17.07;8.50;;;;;;;17.07;33.83;96944.19;5030376;28;20218;-68
2021/04/01 00:15:53;;;;;;;27.13;8.27;;;;;;;17.14;33.68;96940.56;5030651;28;20434;-66
2021/04/01 00:18:21;;;;;;;15.37;7.70;;;;;;;17.18;33.60;96935.66;5028993;28;20180;-68
2021/04/01 00:20:47;;;;;;;13.43;8.27;;;;;;;17.19;33.54;96937.31;5028010;28;20505;-70
2021/04/01 00:23:13;;;;;;;16.60;7.70;;;;;;;17.10;33.88;96941.16;5029898;28;20544;-67
2021/04/01 00:25:39;;;;;;;16.10;7.97;;;;;;;16.94;34.31;96935.22;5029877;28;20200;-69
2021/04/01 00:28:05;;;;;;;12.87;7.90;;;;;;;16.88;34.43;96930.69;5030313;28;20701;-70
2021/04/01 00:30:31;;;;;;;22.33;9.40;;;;;;;16.93;34.30;96932.75;5030976;28;20180;-70
2021/04/01 00:32:57;;;;;;;17.30;7.83;;;;;;;16.84;34.66;96930.25;5029424;28;20463;-70
2021/04/01 00:35:23;;;;;;;15.70;7.87;;;;;;;16.88;34.35;96928.06;5030598;28;20430;-68
2021/04/01 00:37:49;;;;;;;16.33;8.97;;;;;;;16.81;34.84;96925.38;5028719;28;20267;-67
2021/04/01 00:40:15;;;;;;;18.57;7.80;;;;;;;16.77;35.15;96924.13;5030589;28;20183;-68
2021/04/01 00:42:41;;;;;;;13.53;7.37;;;;;;;16.49;35.52;96929.53;5030210;28;20218;-69
2021/04/01 00:45:09;;;;;;;25.50;7.80;;;;;;;16.30;35.71;96923.94;5027858;28;20639;-68
2021/04/01 00:47:36;;;;;;;17.27;8.30;;;;;;;16.40;35.41;96919.09;5030286;28;20437;-70
2021/04/01 00:50:06;;;;;;;14.03;7.90;;;;;;;16.51;35.48;96924.84;5030587;28;20425;-70
2021/04/01 00:52:32;;;;;;;17.70;7.60;;;;;;;16.47;35.50;96927.06;5020339;28;20451;-68
2021/04/01 00:54:57;;;;;;;14.60;8.10;;;;;;;16.52;35.59;96916.72;5030383;28;20785;-69
2021/04/01 00:57:23;;;;;;;10.73;6.93;;;;;;;16.56;35.64;96919.78;5027830;28;20186;-66
2021/04/01 00:59:49;;;;;;;22.33;8.47;;;;;;;16.54;35.68;96919.16;5027733;28;20184;-69
2021/04/01 01:02:15;;;;;;;14.70;7.67;;;;;;;16.50;36.27;96912.66;5027656;28;20469;-67
2021/04/01 01:04:41;;;;;;;20.00;7.60;;;;;;;16.38;36.32;96917.69;5030099;28;20423;-67
2021/04/01 01:07:07;;;;;;;16.80;8.00;;;;;;;16.34;36.88;96911.13;5030352;28;20208;-68
2021/04/01 01:09:32;;;;;;;13.63;6.70;;;;;;;16.33;36.83;96914.78;5030552;28;20207;-70
2021/04/01 01:11:58;;;;;;;14.60;7.17;;;;;;;16.28;37.06;96908.28;5029799;28;20172;-69
2021/04/01 01:14:24;;;;;;;14.43;7.80;;;;;;;16.26;37.21;96912.09;5030376;28;20442;-68
2021/04/01 01:16:49;;;;;;;11.37;6.37;;;;;;;16.17;37.04;96913.28;5029793;28;20188;-68
2021/04/01 01:19:17;;;;;;;12.70;7.37;;;;;;;16.13;37.65;96908.38;5024881;28;20202;-69
2021/04/01 01:21:43;;;;;;;11.87;6.50;;;;;;;16.09;38.08;96901.88;5031298;28;20200;-68
2021/04/01 01:24:12;;;;;;;10.80;6.03;;;;;;;16.01;38.28;96904.66;5033044;28;20447;-69
2021/04/01 01:26:39;;;;;;;15.20;7.57;;;;;;;15.94;38.40;96901.16;5033403;28;20434;-69
2021/04/01 01:29:04;;;;;;;11.20;7.27;;;;;;;15.75;38.43;96900.78;5032182;28;20469;-68
2021/04/01 01:31:30;;;;;;;19.40;7.17;;;;;;;15.52;38.98;96901.06;5032726;28;20418;-69
2021/04/01 01:33:57;;;;;;;18.97;7.23;;;;;;;15.61;38.56;96899.09;5031621;28;20295;-69
2021/04/01 01:36:22;;;;;;;18.50;7.30;;;;;;;15.37;38.49;96898.50;5033275;28;20179;-70
2021/04/01 01:38:48;;;;;;;17.83;6.80;;;;;;;15.51;38.74;96896.78;5032547;28;20785;-68
2021/04/01 01:41:13;;;;;;;11.23;7.17;;;;;;;15.46;38.88;96888.59;5032582;28;20196;-69
2021/04/01 01:43:39;;;;;;;16.43;7.60;;;;;;;15.32;38.55;96901.69;5032545;28;20203;-68
2021/04/01 01:46:05;;;;;;;16.47;7.20;;;;;;;15.56;38.20;96888.28;5033495;28;20268;-68
2021/04/01 01:48:30;;;;;;;16.80;7.10;;;;;;;15.41;38.40;96883.91;5033052;28;20184;-67
2021/04/01 01:50:58;;;;;;;20.10;7.17;;;;;;;15.55;38.94;96889.28;5033236;28;20234;-67
2021/04/01 01:53:24;;;;;;;11.27;6.20;;;;;;;15.52;39.31;96885.22;5031609;28;20353;-66
2021/04/01 01:55:50;;;;;;;12.10;6.40;;;;;;;15.50;39.51;96881.94;5032334;28;20423;-68
2021/04/01 01:58:15;;;;;;;11.77;7.63;;;;;;;15.52;39.48;96887.84;5028672;28;20427;-67
2021/04/01 02:00:47;;;;;;;14.53;6.80;;;;;;;15.46;39.75;96881.50;5031898;28;20249;-68
2021/04/01 02:03:13;;;;;;;12.17;6.60;;;;;;;15.37;39.84;96880.03;5018241;28;20196;-68
2021/04/01 02:05:40;;;;;;;14.73;7.47;;;;;;;15.28;40.55;96878.50;5033106;28;20437;-67
2021/04/01 02:08:07;;;;;;;13.23;6.50;;;;;;;15.20;40.83;96877.63;5032557;28;20179;-69
2021/04/01 02:10:47;;;;;;;9.37;6.43;;;;;;;15.15;40.67;96880.03;5033145;28;20521;-66
2021/04/01 02:13:18;;;;;;;13.60;6.13;;;;;;;15.24;40.57;96872.00;5032097;28;20454;-67
2021/04/01 02:15:46;;;;;;;13.70;6.00;;;;;;;15.24;40.54;96866.72;5031591;28;20933;-67
2021/04/01 02:18:17;;;;;;;10.97;6.33;;;;;;;15.22;40.43;96863.44;5030937;28;20450;-67
2021/04/01 02:20:48;;;;;;;17.53;6.97;;;;;;;15.16;40.39;96855.25;5030310;28;20429;-68
2021/04/01 02:23:33;;;;;;;10.07;6.50;;;;;;;15.10;40.46;96856.03;5031366;28;20473;-68
2021/04/01 02:26:00;;;;;;;10.87;6.20;;;;;;;15.06;40.58;96860.06;5031519;28;20492;-68
2021/04/01 02:28:27;;;;;;;10.83;6.93;;;;;;;15.00;40.75;96866.06;5031315;28;20437;-68
2021/04/01 02:30:55;;;;;;;16.13;7.20;;;;;;;15.01;40.56;96857.97;5032200;28;20961;-67
2021/04/01 02:33:22;;;;;;;12.37;7.13;;;;;;;15.03;40.19;96855.16;5030134;28;20473;-68
2021/04/01 02:35:48;;;;;;;16.10;7.37;;;;;;;15.09;40.01;96858.84;5030774;28;20790;-66
2021/04/01 02:38:14;;;;;;;14.17;7.13;;;;;;;15.06;39.96;96854.78;5031956;28;20426;-68
2021/04/01 02:40:40;;;;;;;11.50;6.00;;;;;;;15.05;40.23;96853.13;5032223;28;20184;-67
2021/04/01 02:43:07;;;;;;;12.13;7.10;;;;;;;15.08;40.09;96852.75;5030909;28;20515;-68
2021/04/01 02:45:33;;;;;;;10.07;6.43;;;;;;;15.04;40.20;96854.13;5032359;28;20679;-68
2021/04/01 02:47:58;;;;;;;15.10;6.33;;;;;;;15.00;40.05;96856.34;5031284;28;20589;-68
2021/04/01 02:50:24;;;;;;;11.80;6.83;;;;;;;15.00;40.05;96850.22;5031400;28;20406;-69
2021/04/01 02:52:50;;;;;;;10.43;6.83;;;;;;;14.93;40.33;96854.66;5029142;28;20227;-68
2021/04/01 02:55:16;;;;;;;12.70;6.50;;;;;;;14.87;40.58;96851.75;5031485;28;20176;-68
2021/04/01 02:57:42;;;;;;;15.03;7.03;;;;;;;14.82;40.45;96851.50;5022392;28;20190;-68
2021/04/01 03:00:12;;;;;;;11.93;6.60;;;;;;;14.78;41.26;96850.25;5014895;28;20184;-68
2021/04/01 03:02:40;;;;;;;16.57;7.70;;;;;;;14.74;41.21;96856.91;5029494;28;20836;-68
2021/04/01 03:05:08;;;;;;;15.23;6.97;;;;;;;14.71;41.22;96852.00;5031548;28;20792;-68
2021/04/01 03:07:34;;;;;;;15.43;7.17;;;;;;;14.68;41.14;96855.81;5013101;28;20810;-68
2021/04/01 03:10:00;;;;;;;12.00;7.80;;;;;;;14.66;41.08;96852.53;5018128;28;20432;-67
2021/04/01 03:12:26;;;;;;;20.20;8.00;;;;;;;14.66;41.20;96851.72;5010835;28;20420;-67
2021/04/01 03:14:52;;;;;;;12.40;7.50;;;;;;;14.66;41.20;96846.44;5011444;28;20546;-68
2021/04/01 03:17:17;;;;;;;14.27;7.40;;;;;;;14.63;41.03;96852.91;5011554;28;20192;-67
2021/04/01 03:19:43;;;;;;;12.93;6.83;;;;;;;14.59;41.11;96855.09;5011478;28;20180;-68
2021/04/01 03:22:08;;;;;;;12.63;6.33;;;;;;;14.53;41.56;96850.56;5004884;28;20218;-69
2021/04/01 03:24:34;;;;;;;12.00;5.80;;;;;;;14.52;41.88;96851.56;5011088;28;20218;-68
2021/04/01 03:27:00;;;;;;;11.60;7.40;;;;;;;14.54;42.06;96856.66;5008765;28;20250;-68
2021/04/01 03:29:25;;;;;;;10.80;6.67;;;;;;;14.51;42.40;96852.56;5011326;28;20176;-67
2021/04/01 03:31:51;;;;;;;15.73;6.80;;;;;;;14.47;42.57;96853.13;5010347;28;20176;-68
2021/04/01 03:34:16;;;;;;;8.27;6.10;;;;;;;14.49;42.47;96848.50;5011246;28;20203;-68
2021/04/01 03:36:45;;;;;;;12.40;6.70;;;;;;;14.48;42.43;96854.75;5013138;28;20184;-68
2021/04/01 03:39:11;;;;;;;13.70;7.43;;;;;;;14.41;42.68;96858.16;5011195;28;20192;-68
2021/04/01 03:41:37;;;;;;;14.10;7.37;;;;;;;14.38;42.73;96855.88;5010831;28;20459;-68
2021/04/01 03:44:03;;;;;;;11.80;6.63;;;;;;;14.39;42.74;96849.59;5009407;28;20517;-68
2021/04/01 03:46:28;;;;;;;12.73;7.37;;;;;;;14.39;42.86;96851.41;5010161;28;20250;-69
2021/04/01 03:48:54;;;;;;;12.50;7.40;;;;;;;14.39;43.16;96854.03;5010589;28;20609;-67
2021/04/01 03:51:20;;;;;;;10.50;6.97;;;;;;;14.36;42.58;96844.69;5011477;28;20595;-68
2021/04/01 03:53:45;;;;;;;14.50;8.40;;;;;;;14.32;42.56;96843.44;5010369;28;20196;-67
2021/04/01 03:56:11;;;;;;;14.20;7.53;;;;;;;14.32;42.66;96848.69;5010962;28;20207;-68
2021/04/01 03:58:57;;;;;;;18.10;8.37;;;;;;;14.29;43.11;96849.88;5015618;28;20208;-68
2021/04/01 04:01:47;;;;;;;14.10;7.37;;;;;;;14.25;42.71;96848.63;5004630;28;20223;-69
2021/04/01 04:04:40;;;;;;;16.30;8.90;;;;;;;14.10;42.28;96853.91;5001856;28;20439;-68
2021/04/01 04:07:51;;;;;;;19.57;8.63;;;;;;;14.14;41.84;96851.72;5012457;28;20942;-68
2021/04/01 04:13:22;;;;;;;18.43;8.87;;;;;;;14.52;39.85;96859.47;4989910;28;20457;-67
2021/04/01 04:15:38;;;;;;;17.13;8.70;;;;;;;14.62;39.65;96868.94;5009682;28;20443;-68
2021/04/01 04:18:04;;;;;;;19.13;9.67;;;;;;;14.63;39.52;96857.34;5010464;28;20446;-68
2021/04/01 04:20:30;;;;;;;20.30;10.43;;;;;;;14.64;39.23;96861.63;5010545;28;20427;-66
2021/04/01 04:22:56;;;;;;;17.83;9.27;;;;;;;14.95;38.77;96852.63;5009417;28;20473;-68
2021/04/01 04:25:23;;;;;;;19.30;10.07;;;;;;;15.15;38.53;96848.34;5008768;28;20684;-67
2021/04/01 04:30:23;;;;;;;14.60;8.63;;;;;;;14.84;39.24;96849.50;5010786;28;20481;-68
2021/04/01 04:32:49;;;;;;;21.57;8.60;;;;;;;15.02;39.12;96854.34;5009578;28;20449;-67
2021/04/01 04:35:14;;;;;;;23.80;9.77;;;;;;;14.71;39.88;96847.53;5010742;28;20423;-69
2021/04/01 04:37:40;;;;;;;23.13;9.40;;;;;;;14.83;40.07;96850.50;5012669;28;20644;-69
2021/04/01 04:40:07;;;;;;;18.57;9.70;;;;;;;14.83;39.57;96850.50;5010574;28;20180;-68
2021/04/01 04:42:32;;;;;;;22.63;9.30;;;;;;;14.58;39.90;96853.47;5008039;28;20219;-68
2021/04/01 04:44:58;;;;;;;19.97;9.10;;;;;;;14.20;40.32;96851.00;5009415;28;20427;-67
2021/04/01 04:47:24;;;;;;;22.60;9.67;;;;;;;14.34;39.65;96861.72;5010195;28;20441;-67
2021/04/01 04:49:50;;;;;;;19.10;9.30;;;;;;;14.58;39.11;96858.75;5010947;28;20875;-68
2021/04/01 04:52:15;;;;;;;15.17;9.37;;;;;;;14.72;39.19;96858.91;5013675;28;20727;-66
2021/04/01 04:54:42;;;;;;;14.70;8.47;;;;;;;14.64;39.09;96861.63;5014397;28;20219;-69
2021/04/01 04:57:17;;;;;;;22.17;9.73;;;;;;;14.62;39.21;96863.66;5013745;28;20176;-68
2021/04/01 05:05:15;;;;;;;19.57;8.90;;;;;;;14.55;39.10;96863.56;5006919;28;20469;-67
2021/04/01 05:07:40;;;;;;;30.70;8.57;;;;;;;14.56;38.98;96863.38;5011883;28;20935;-68
2021/04/01 05:10:06;;;;;;;16.90;9.13;;;;;;;14.79;38.62;96870.34;5013934;28;20314;-67
2021/04/01 05:12:32;;;;;;;19.73;9.00;;;;;;;14.93;38.59;96865.19;5012924;28;20685;-68
2021/04/01 05:14:58;;;;;;;18.60;8.40;;;;;;;15.23;38.59;96859.78;5013105;28;20423;-66
2021/04/01 05:17:24;;;;;;;20.53;7.97;;;;;;;15.29;38.48;96864.31;5027112;28;20187;-67
2021/04/01 05:19:54;;;;;;;17.10;7.83;;;;;;;15.28;38.45;96860.03;5027422;28;20188;-68
2021/04/01 05:24:55;;;;;;;21.70;8.87;;;;;;;15.21;38.72;96867.88;5033186;28;20438;-67
2021/04/01 05:27:24;;;;;;;16.10;8.40;;;;;;;15.17;39.13;96867.47;5033365;28;20540;-67
2021/04/01 05:29:59;;;;;;;27.00;10.53;;;;;;;15.12;40.08;96875.13;5033478;28;20458;-67
2021/04/01 05:32:30;;;;;;;18.23;8.80;;;;;;;15.14;39.96;96870.47;5032810;28;20410;-68
2021/04/01 05:34:56;;;;;;;29.00;9.43;;;;;;;14.92;39.70;96872.31;5033500;28;21013;-68
2021/04/01 05:37:25;;;;;;;23.87;8.87;;;;;;;15.03;39.41;96881.53;5032971;28;20426;-68
2021/04/01 05:39:52;;;;;;;23.10;8.30;;;;;;;15.15;39.59;96871.31;5031264;28;20690;-69
2021/04/01 05:42:22;;;;;;;22.33;8.47;;;;;;;15.27;39.62;96876.88;5032289;28;20515;-68
2021/04/01 05:44:59;;;;;;;16.60;8.83;;;;;;;15.37;39.73;96880.03;5032274;28;20434;-70
2021/04/01 05:47:33;;;;;;;13.10;8.30;;;;;;;15.45;39.44;96884.31;5027744;28;20819;-69
2021/04/01 06:05:49;;;;;;;13.10;7.37;;;;;;;16.03;37.54;96889.44;5032834;28;20537;-68
2021/04/01 06:08:18;;;;;;;12.20;7.57;;;;;;;16.12;38.09;96890.91;5018692;28;20455;-69
2021/04/01 06:10:44;;;;;;;15.53;7.77;;;;;;;16.10;38.41;96887.66;5032712;28;20784;-69
2021/04/01 06:13:12;;;;;;;17.90;8.30;;;;;;;16.16;38.64;96887.88;5032249;28;20534;-69
2021/04/01 06:15:38;;;;;;;19.50;8.03;;;;;;;16.20;38.73;96889.91;5027698;28;20506;-67
2021/04/01 06:18:11;;;;;;;18.03;7.90;;;;;;;16.37;38.45;96893.06;5002791;28;20882;-69
2021/04/01 06:20:39;;;;;;;13.80;7.07;;;;;;;16.44;38.02;96890.47;5018340;28;20274;-68
2021/04/01 06:23:05;;;;;;;14.70;6.80;;;;;;;16.58;37.84;96888.66;5027015;28;20926;-68
2021/04/01 06:25:36;;;;;;;15.07;7.70;;;;;;;17.05;37.25;96888.81;5017248;28;20439;-68
2021/04/01 06:28:06;;;;;;;12.90;8.00;;;;;;;17.90;35.92;96879.44;5029389;28;20192;-69
2021/04/01 06:30:44;;;;;;;11.70;6.87;;;;;;;18.94;33.84;96890.09;5032563;28;20422;-68
2021/04/01 06:33:12;;;;;;;19.57;8.23;;;;;;;20.07;32.42;96876.91;5027137;28;20450;-67
2021/04/01 06:35:52;;;;;;;13.30;6.93;;;;;;;21.49;30.22;96881.22;5030080;28;20509;-69
2021/04/01 06:38:25;;;;;;;14.20;7.13;;;;;;;22.68;28.73;96881.13;5031100;28;20422;-68
2021/04/01 06:41:00;;;;;;;13.63;7.23;;;;;;;23.19;27.73;96880.41;5025816;28;20972;-68
2021/04/01 06:43:52;;;;;;;21.10;8.10;;;;;;;23.34;26.95;96878.00;5031411;28;20537;-68
2021/04/01 06:46:19;;;;;;;20.63;7.70;;;;;;;22.98;27.10;96882.72;5011083;28;20481;-70
2021/04/01 06:51:26;;;;;;;57.20;20.07;;;;;;;22.47;27.86;96880.72;5030483;28;20418;-69
2021/04/01 07:04:53;;;;;;;23.37;8.03;;;;;;;21.69;29.42;96878.25;5020987;28;20439;-67
2021/04/01 07:07:21;;;;;;;30.60;7.67;;;;;;;21.64;29.92;96883.44;5018863;28;20454;-68
2021/04/01 07:12:27;;;;;;;18.87;7.93;;;;;;;21.66;29.81;96881.38;5030140;28;20426;-68
2021/04/01 07:15:04;;;;;;;34.87;8.50;;;;;;;21.33;30.28;96875.50;5030726;28;20422;-68
2021/04/01 07:17:43;;;;;;;20.27;6.90;;;;;;;21.53;29.75;96879.72;5020783;28;20421;-68
2021/04/01 07:20:34;;;;;;;21.40;6.50;;;;;;;21.62;30.00;96878.34;5017041;28;20416;-69
2021/04/01 07:23:34;;;;;;;21.77;6.30;;;;;;;21.63;29.82;96879.16;5030725;28;20473;-68
2021/04/01 07:34:54;;;;;;;14.23;6.23;;;;;;;21.96;30.24;96863.59;5029347;28;20442;-69
2021/04/01 07:48:16;;;;;;;23.33;5.93;;;;;;;23.08;29.37;96874.09;5021523;28;20426;-69
2021/04/01 07:50:45;;;;;;;17.87;5.90;;;;;;;22.79;29.74;96877.59;5003213;28;20418;-69
2021/04/01 07:53:12;;;;;;;17.57;6.50;;;;;;;23.45;29.05;96874.44;5014295;28;20674;-69
2021/04/01 07:55:58;;;;;;;26.83;9.63;;;;;;;23.76;28.53;96869.56;5030823;28;20433;-70
2021/04/01 08:01:30;;;;;;;25.03;6.07;;;;;;;23.98;28.27;96871.50;5028558;28;20451;-67
2021/04/01 08:03:56;;;;;;;13.17;4.20;;;;;;;23.95;28.27;96871.97;5029294;28;20466;-69
2021/04/01 08:06:25;;;;;;;9.83;3.20;;;;;;;23.76;27.61;96866.06;5030770;28;20423;-69
2021/04/01 08:08:55;;;;;;;11.23;4.00;;;;;;;23.81;27.61;96868.84;5030249;28;20438;-68
2021/04/01 08:11:31;;;;;;;9.87;3.57;;;;;;;24.07;26.98;96877.25;5020843;28;20426;-68
2021/04/01 08:14:17;;;;;;;6.80;3.17;;;;;;;23.82;27.28;96869.66;5018906;28;20474;-69
2021/04/01 08:17:10;;;;;;;4.03;3.10;;;;;;;24.29;26.39;96866.56;5024234;28;20951;-69
2021/04/01 08:19:37;;;;;;;4.90;3.20;;;;;;;24.71;26.18;96869.72;5015914;28;20447;-69
2021/04/01 08:22:05;;;;;;;4.20;2.83;;;;;;;24.52;25.98;96873.50;5023917;28;20786;-68
2021/04/01 08:24:38;;;;;;;7.93;2.80;;;;;;;24.07;26.07;96864.66;5027720;28;20465;-69
2021/04/01 08:28:03;;;;;;;4.87;3.20;;;;;;;23.68;26.80;96867.31;5030757;28;20435;-68
2021/04/01 08:35:25;;;;;;;8.80;3.43;;;;;;;23.29;27.03;96869.94;5013777;28;20461;-69
2021/04/01 08:40:28;;;;;;;9.63;2.93;;;;;;;23.97;26.55;96863.72;5024597;28;20434;-68
2021/04/01 08:42:54;;;;;;;3.87;2.93;;;;;;;23.68;26.55;96866.50;5033510;28;20523;-70
2021/04/01 08:45:32;;;;;;;6.17;2.63;;;;;;;24.10;26.03;96867.91;5032039;28;20200;-69
2021/04/01 08:48:19;;;;;;;15.57;3.53;;;;;;;23.43;26.82;96857.84;5032566;28;20438;-69
2021/04/01 08:51:07;;;;;;;7.83;3.00;;;;;;;23.37;27.07;96860.69;5033627;28;20420;-68
2021/04/01 08:53:54;;;;;;;15.23;3.23;;;;;;;23.50;27.18;96859.53;5033998;28;20584;-68
2021/04/01 08:56:26;;;;;;;7.80;2.70;;;;;;;23.15;27.47;96870.22;5021812;28;20450;-68
2021/04/01 08:59:03;;;;;;;11.83;3.43;;;;;;;23.27;27.55;96862.13;5019769;28;20423;-70
2021/04/01 09:01:36;;;;;;;3.70;2.90;;;;;;;23.42;27.40;96850.88;5032199;28;20980;-68
2021/04/01 09:04:02;;;;;;;8.87;3.40;;;;;;;23.50;27.46;96854.19;5032294;28;20450;-70
2021/04/01 09:06:32;;;;;;;8.50;3.53;;;;;;;23.80;27.33;96848.47;5034262;28;20433;-69
2021/04/01 09:09:04;;;;;;;12.20;3.30;;;;;;;23.73;27.39;96854.00;5032497;28;20182;-68
2021/04/01 09:11:55;;;;;;;11.70;3.00;;;;;;;24.23;26.70;96846.13;5033681;28;20502;-69
2021/04/01 09:14:28;;;;;;;3.73;2.73;;;;;;;24.38;26.56;96857.03;5032603;28;20515;-69
2021/04/01 09:17:06;;;;;;;5.50;3.33;;;;;;;24.34;26.47;96855.88;5027536;28;20452;-70
2021/04/01 09:19:32;;;;;;;9.60;3.27;;;;;;;24.34;26.29;96850.53;5028945;28;20495;-70
2021/04/01 09:21:58;;;;;;;9.20;3.50;;;;;;;24.22;26.49;96849.84;5033239;28;20450;-69
2021/04/01 09:24:29;;;;;;;7.27;3.43;;;;;;;24.39;26.49;96845.25;5025517;28;20215;-69
2021/04/01 09:26:55;;;;;;;12.10;3.07;;;;;;;24.80;26.13;96846.78;5031019;28;20439;-69
2021/04/01 09:29:21;;;;;;;7.73;3.10;;;;;;;25.08;25.77;96850.25;5032038;28;20495;-68
2021/04/01 09:31:58;;;;;;;4.30;2.83;;;;;;;24.46;26.86;96849.59;5026467;28;20867;-67
2021/04/01 09:34:24;;;;;;;7.93;3.53;;;;;;;24.07;27.43;96847.81;5030989;28;20446;-69
2021/04/01 09:36:50;;;;;;;6.47;3.70;;;;;;;23.97;27.38;96843.13;5032235;28;20748;-69
2021/04/01 09:39:25;;;;;;;8.73;2.70;;;;;;;23.74;27.74;96852.16;5033160;28;20426;-69
2021/04/01 09:41:56;;;;;;;7.83;3.17;;;;;;;23.53;28.07;96853.72;5032098;28;20457;-70
2021/04/01 09:44:22;;;;;;;12.13;3.90;;;;;;;23.44;28.46;96853.31;5032549;28;20831;-69
2021/04/01 09:46:56;;;;;;;9.90;4.93;;;;;;;24.23;28.01;96846.94;5018200;28;20450;-69
2021/04/01 09:49:31;;;;;;;8.93;5.43;;;;;;;24.22;28.23;96848.00;5013373;28;20427;-69
2021/04/01 09:51:58;;;;;;;16.10;5.60;;;;;;;24.35;27.97;96844.13;5031319;28;20472;-68
2021/04/01 09:54:29;;;;;;;18.03;5.30;;;;;;;24.60;27.91;96847.34;5018815;28;21022;-70
2021/04/01 09:56:56;;;;;;;15.83;4.90;;;;;;;24.62;28.04;96839.88;5032669;28;20920;-70
2021/04/01 09:59:31;;;;;;;10.90;4.80;;;;;;;24.27;28.69;96846.44;5028358;28;20541;-69
2021/04/01 10:02:06;;;;;;;15.80;5.93;;;;;;;24.50;28.08;96848.03;5032499;28;20472;-69
2021/04/01 10:04:34;;;;;;;9.43;4.27;;;;;;;24.82;27.78;96842.00;5030999;28;20472;-69
2021/04/01 10:07:17;;;;;;;10.00;5.20;;;;;;;24.47;28.06;96843.19;5032758;28;20438;-68
2021/04/01 10:09:51;;;;;;;15.10;5.00;;;;;;;24.38;28.47;96837.47;5033036;28;20609;-68
2021/04/01 10:12:21;;;;;;;13.77;6.23;;;;;;;24.48;28.43;96826.06;5017304;28;20438;-67
2021/04/01 10:14:53;;;;;;;14.63;6.93;;;;;;;24.60;28.67;96818.69;5031568;28;20449;-68
2021/04/01 10:17:20;;;;;;;31.80;11.77;;;;;;;24.99;27.85;96820.44;5023367;28;20971;-68
2021/04/01 10:19:57;;;;;;;11.90;4.97;;;;;;;25.60;26.59;96811.25;5027592;28;20490;-71
2021/04/01 10:22:22;;;;;;;14.67;5.23;;;;;;;25.66;26.80;96817.47;5030380;28;20809;-69
2021/04/01 10:27:57;;;;;;;16.70;5.13;;;;;;;26.59;25.41;96812.50;5024394;28;20549;-68
2021/04/01 10:30:30;;;;;;;16.30;4.57;;;;;;;26.55;25.15;96808.72;5032791;28;20476;-70
2021/04/01 10:33:05;;;;;;;26.10;6.30;;;;;;;26.51;25.71;96795.81;5031615;28;20516;-67
2021/04/01 10:35:33;;;;;;;8.73;4.30;;;;;;;26.10;25.83;96800.22;5032187;28;20425;-70
2021/04/01 10:38:02;;;;;;;10.37;4.70;;;;;;;26.66;25.38;96791.56;5031825;28;20434;-68
2021/04/01 10:40:30;;;;;;;11.53;4.80;;;;;;;26.88;25.04;96785.16;5031230;28;20517;-69
2021/04/01 10:43:06;;;;;;;11.97;4.50;;;;;;;26.95;24.95;96780.34;5030781;28;20466;-69
2021/04/01 10:45:40;;;;;;;14.77;5.07;;;;;;;26.74;25.43;96774.91;5025985;28;20431;-68
2021/04/01 10:48:29;;;;;;;23.13;5.20;;;;;;;26.67;25.43;96782.41;5030660;28;20826;-70
2021/04/01 10:51:02;;;;;;;6.80;4.20;;;;;;;27.24;25.10;96767.13;5023851;28;20426;-68
2021/04/01 10:53:27;;;;;;;9.03;4.97;;;;;;;26.43;25.67;96769.50;5031184;28;20445;-69
2021/04/01 10:56:01;;;;;;;19.00;5.57;;;;;;;26.97;24.99;96765.53;5031934;28;20414;-68
2021/04/01 10:58:26;;;;;;;11.57;5.20;;;;;;;26.67;25.43;96761.72;5026085;28;20707;-70
2021/04/01 11:00:54;;;;;;;10.53;4.30;;;;;;;27.08;25.09;96760.16;5030178;28;20513;-70
2021/04/01 11:03:24;;;;;;;11.17;4.57;;;;;;;27.63;23.95;96765.72;5030728;28;20582;-70
2021/04/01 11:05:50;;;;;;;9.77;4.07;;;;;;;27.98;23.63;96755.91;5023897;28;20474;-68
2021/04/01 11:08:16;;;;;;;10.67;4.57;;;;;;;27.78;23.79;96761.38;5031967;28;20496;-70
2021/04/01 11:10:42;;;;;;;12.53;4.40;;;;;;;27.40;24.37;96756.34;5031823;28;20517;-70
2021/04/01 11:13:08;;;;;;;8.53;4.47;;;;;;;27.66;23.15;96756.31;5030573;28;20243;-68
2021/04/01 11:15:36;;;;;;;3.83;2.70;;;;;;;27.34;22.34;96752.06;5026989;28;20426;-69
2021/04/01 11:18:01;;;;;;;3.10;2.23;;;;;;;27.58;21.77;96742.34;5029571;28;20939;-71
2021/04/01 11:20:31;;;;;;;5.77;2.07;;;;;;;27.01;22.16;96751.56;5029092;28;20426;-69
2021/04/01 11:23:01;;;;;;;7.43;2.27;;;;;;;27.14;21.88;96742.94;5028730;28;20239;-68
2021/04/01 11:25:27;;;;;;;2.30;2.10;;;;;;;28.14;20.51;96739.72;5031483;28;20446;-70
2021/04/01 11:27:54;;;;;;;6.80;2.37;;;;;;;28.61;20.10;96740.25;5030825;28;20513;-71
2021/04/01 11:30:20;;;;;;;3.60;2.10;;;;;;;27.48;21.35;96733.47;5031079;28;20926;-70
2021/04/01 11:32:51;;;;;;;5.43;1.80;;;;;;;27.17;21.96;96728.16;5028877;28;20446;-69
2021/04/01 11:35:20;;;;;;;5.47;2.10;;;;;;;27.13;21.81;96723.31;5023376;28;20894;-70
2021/04/01 11:37:52;;;;;;;4.60;2.17;;;;;;;26.96;22.01;96728.19;5030415;28;20419;-70
2021/04/01 11:40:19;;;;;;;7.30;2.20;;;;;;;27.03;22.19;96720.63;5031916;28;20418;-70
2021/04/01 11:42:54;;;;;;;3.10;2.27;;;;;;;26.47;23.56;96724.09;5029119;28;20458;-71
2021/04/01 11:45:31;;;;;;;5.60;2.67;;;;;;;26.22;23.47;96729.13;5028462;28;20422;-70
2021/04/01 11:47:57;;;;;;;12.20;2.90;;;;;;;26.68;22.61;96724.94;5029160;28;20533;-69
2021/04/01 11:50:23;;;;;;;3.60;1.90;;;;;;;27.44;22.01;96725.13;5030505;28;20940;-70
2021/04/01 11:52:59;;;;;;;6.37;2.30;;;;;;;27.42;22.25;96711.97;5027903;28;20447;-72
2021/04/01 11:55:26;;;;;;;4.00;2.13;;;;;;;26.53;22.80;96712.25;5024881;28;20180;-69
2021/04/01 11:57:52;;;;;;;5.23;2.50;;;;;;;26.91;22.47;96722.78;5023644;28;20427;-70
2021/04/01 12:03:52;;;;;;;6.40;2.80;;;;;;;26.14;24.52;96710.09;5029678;28;20457;-68
2021/04/01 12:05:47;;;;;;;7.43;2.80;;;;;;;27.55;23.11;96704.41;5030133;28;20431;-71
2021/04/01 12:08:13;;;;;;;5.73;2.90;;;;;;;27.90;22.35;96699.97;5029299;28;20427;-69
2021/04/01 12:10:40;;;;;;;7.90;3.10;;;;;;;28.92;21.12;96697.69;5029365;28;20430;-69
2021/04/01 12:13:06;;;;;;;3.77;2.07;;;;;;;27.31;22.15;96693.41;5012217;28;20230;-69
2021/04/01 12:15:36;;;;;;;9.47;2.33;;;;;;;27.11;21.88;96697.78;5018255;28;20492;-69
2021/04/01 12:18:04;;;;;;;5.80;2.43;;;;;;;27.84;21.08;96684.94;5028270;28;20500;-68
2021/04/01 12:20:30;;;;;;;3.70;2.23;;;;;;;27.43;21.74;96692.06;5020937;28;20910;-69
2021/04/01 12:22:56;;;;;;;10.60;2.40;;;;;;;28.30;20.68;96690.06;5025819;28;20545;-68
2021/04/01 12:25:24;;;;;;;9.93;2.30;;;;;;;29.11;19.74;96695.09;5023781;28;20533;-70
2021/04/01 12:27:52;;;;;;;10.73;2.10;;;;;;;28.01;21.14;96684.56;5030230;28;20215;-68
2021/04/01 12:30:23;;;;;;;5.90;2.20;;;;;;;27.58;21.83;96672.38;5021670;28;20437;-69
2021/04/01 12:32:50;;;;;;;5.00;2.47;;;;;;;28.03;21.04;96679.72;5029070;28;20450;-70
2021/04/01 12:35:16;;;;;;;2.73;2.20;;;;;;;27.79;21.67;96674.97;5030551;28;20806;-70
2021/04/01 12:37:42;;;;;;;7.37;2.10;;;;;;;28.96;20.10;96665.56;5021247;28;20458;-69
2021/04/01 12:40:13;;;;;;;2.77;2.10;;;;;;;29.76;19.64;96665.25;5030229;28;20445;-69
2021/04/01 12:42:38;;;;;;;5.43;2.10;;;;;;;28.05;21.27;96664.06;5028945;28;20469;-68
2021/04/01 12:45:14;;;;;;;4.87;2.70;;;;;;;27.65;22.43;96655.16;5029807;28;20501;-71
2021/04/01 12:47:41;;;;;;;8.20;2.63;;;;;;;28.12;22.15;96666.47;5028105;28;20175;-68
2021/04/01 12:50:07;;;;;;;7.70;2.70;;;;;;;27.98;22.29;96664.38;5027862;28;20456;-68
2021/04/01 12:53:02;;;;;;;5.50;3.07;;;;;;;27.40;23.05;96660.31;5029324;28;20473;-69
2021/04/01 12:55:49;;;;;;;4.63;2.73;;;;;;;27.66;22.73;96651.38;4988357;28;20436;-70
2021/04/01 12:58:29;;;;;;;6.07;2.60;;;;;;;26.97;23.82;96657.19;4983985;28;20520;-71
2021/04/01 13:00:59;;;;;;;6.13;2.60;;;;;;;27.30;23.23;96652.28;4988096;28;20420;-69